Latest Weather Observations for Norah Head

IDN60801

Issued at 10:33 am EST Tuesday 26 July 2016 (issued every 30 minutes, with the page automatically refreshed every 10 minutes)

About weather observations | Map of weather stations | Latest weather observations for NSW | Other Formats
Station Details ID: 061366 Name: NORAH HEAD AWS Lat: -33.28 Lon: 151.58 Height: 18.8 m
Data from the previous 72 hours. | See also: Recent months at Norah Head
Date/Time
EST
Temp
°C
App
Temp
°C
Dew
Point
°C
Rel
Hum
%
Delta-T
°C
Wind Press
QNH
hPa
Press
MSL
hPa
Rain since
9am
mm
Dir  Spd
km/h
Gust
km/h
Spd
kts
Gust
kts
26/10:30am 16.4 11.7 7.9 57 4.3 NNW 22 30 12 16 1015.7 1015.7 0.0
26/10:00am 15.2 9.9 7.0 58 4.0 NNW 24 32 13 17 1015.9 1015.9 0.0
26/09:30am 14.2 8.9 6.6 60 3.7 NNW 24 32 13 17 1015.9 1015.9 0.0
26/09:00am 13.1 6.6 6.5 64 3.2 N 30 35 16 19 1015.6 1015.6 0.0
26/08:30am 13.0 6.6 6.8 66 3.0 N 30 37 16 20 1015.5 1015.5 0.0
26/08:00am 12.6 6.7 7.3 70 2.6 N 28 32 15 17 1015.5 1015.5 0.0
26/07:30am 11.8 5.8 7.1 73 2.3 N 28 32 15 17 1015.0 1015.0 0.0
26/07:00am 10.8 5.9 6.7 76 1.9 NNW 22 30 12 16 1014.9 1014.9 0.0
26/06:30am 10.7 5.4 6.6 76 1.9 N 24 30 13 16 1014.5 1014.5 0.0
26/06:00am 11.1 5.4 6.6 74 2.1 N 26 32 14 17 1014.1 1014.1 0.0
26/05:30am 11.3 5.2 6.8 74 2.1 N 28 32 15 17 1013.8 1013.8 0.0
26/05:00am 11.3 6.0 6.6 73 2.2 N 24 28 13 15 1013.7 1013.7 0.0
26/04:30am 11.0 5.7 5.1 67 2.7 NNW 22 30 12 16 1013.6 1013.6 0.0
26/04:00am 11.0 6.7 5.3 68 2.6 NNW 17 24 9 13 1013.5 1013.5 0.0
26/03:30am 11.1 6.7 5.0 66 2.8 NNW 17 20 9 11 1013.7 1013.7 0.0
26/03:00am 10.8 7.5 4.5 65 2.8 NNW 11 19 6 10 1013.9 1013.9 0.0
26/02:30am 10.9 8.0 4.4 64 2.9 NW 9 19 5 10 1014.0 1014.0 0.0
26/02:00am 11.6 8.1 5.3 65 2.9 NNW 13 24 7 13 1014.0 1014.0 0.0
26/01:30am 11.4 7.1 5.3 66 2.8 NNW 17 24 9 13 1013.8 1013.8 0.0
26/01:00am 11.3 7.8 5.4 67 2.7 NW 13 19 7 10 1014.1 1014.1 0.0
26/12:30am 11.2 8.0 5.1 66 2.8 NNW 11 17 6 9 1014.3 1014.3 0.0
26/12:00am 11.4 8.6 5.3 66 2.8 NNW 9 15 5 8 1014.5 1014.5 0.0
 
Date/Time
EST
Temp
°C
App
Temp
°C
Dew
Point
°C
Rel
Hum
%
Delta-T
°C
Wind Press
QNH
hPa
Press
MSL
hPa
Rain since
9am
mm
Dir  Spd
km/h
Gust
km/h
Spd
kts
Gust
kts
25/11:30pm 11.7 8.8 4.9 63 3.1 WNW 9 15 5 8 1014.8 1014.8 0.0
25/11:00pm 11.6 9.1 5.0 64 3.0 WNW 7 15 4 8 1014.6 1014.6 0.0
25/10:30pm 11.6 9.1 4.8 63 3.1 WNW 7 15 4 8 1014.5 1014.5 0.0
25/10:00pm 11.8 8.9 4.8 62 3.2 NW 9 17 5 9 1014.2 1014.2 0.0
25/09:30pm 11.9 9.0 4.4 60 3.4 WNW 9 19 5 10 1014.2 1014.2 0.0
25/09:00pm 12.3 9.3 4.3 58 3.6 WNW 9 17 5 9 1014.3 1014.3 0.0
25/08:30pm 12.6 9.0 5.1 60 3.5 WNW 13 28 7 15 1014.1 1014.1 0.0
25/08:00pm 12.7 9.5 5.1 60 3.5 NW 11 20 6 11 1014.2 1014.2 0.0
25/07:30pm 13.0 9.7 4.4 56 3.9 WNW 11 22 6 12 1014.1 1014.1 0.0
25/07:00pm 13.3 9.9 4.2 54 4.1 WNW 11 26 6 14 1013.7 1013.7 0.0
25/06:30pm 13.7 10.4 4.3 53 4.3 NW 11 20 6 11 1013.5 1013.5 0.0
25/06:00pm 13.7 11.2 4.0 52 4.4 WNW 6 13 3 7 1013.1 1013.1 0.0
25/05:30pm 14.3 11.3 4.0 50 4.7 NW 9 19 5 10 1013.0 1013.0 0.0
25/05:00pm 14.7 12.0 3.5 47 5.1 WNW 7 19 4 10 1012.6 1012.6 0.0
25/04:30pm 15.4 12.2 2.9 43 5.6 NW 9 22 5 12 1012.4 1012.4 0.0
25/04:00pm 16.0 12.4 2.8 41 6.0 WNW 11 28 6 15 1012.2 1012.2 0.0
25/03:30pm 16.3 13.0 2.7 40 6.2 WNW 9 20 5 11 1012.1 1012.0 0.0
25/03:00pm 16.6 13.0 3.0 40 6.2 WNW 11 32 6 17 1012.0 1011.9 0.0
25/02:30pm 17.2 13.5 2.4 37 6.7 WNW 11 32 6 17 1012.1 1012.0 0.0
25/02:00pm 17.3 12.9 2.9 38 6.6 WNW 15 32 8 17 1011.9 1011.8 0.0
25/01:30pm 17.4 13.7 4.4 42 6.1 WNW 13 28 7 15 1012.3 1012.3 0.0
25/01:00pm 16.9 12.2 3.2 40 6.3 WNW 17 39 9 21 1012.1 1012.0 0.0
25/12:30pm 16.7 12.7 2.7 39 6.4 WNW 13 33 7 18 1012.8 1012.8 0.0
25/12:00pm 16.4 12.1 3.1 41 6.1 WNW 15 41 8 22 1012.8 1012.8 0.0
25/11:30am 16.0 11.8 3.8 44 5.6 WNW 15 41 8 22 1012.9 1012.9 0.0
25/11:00am 15.4 11.7 4.5 48 5.1 WNW 13 26 7 14 1013.3 1013.3 0.0
25/10:30am 14.8 10.7 4.5 50 4.8 NW 15 32 8 17 1013.8 1013.8 0.0
25/10:00am 14.7 11.5 5.2 53 4.5 WNW 11 28 6 15 1013.6 1013.6 0.0
25/09:30am 13.9 10.2 4.5 53 4.3 WNW 13 30 7 16 1014.0 1014.0 0.0
25/09:00am 13.4 10.1 4.6 55 4.0 NW 11 22 6 12 1013.8 1013.8 0.0
25/08:30am 12.6 10.0 4.3 57 3.8 WNW 7 17 4 9 1014.2 1014.2 0.0
25/08:00am 11.8 8.5 4.5 61 3.3 NW 11 22 6 12 1013.5 1013.5 0.0
25/07:30am 10.8 8.3 4.9 67 2.7 NW 7 15 4 8 1013.4 1013.4 0.0
25/07:00am 10.1 7.8 4.9 70 2.3 NW 6 13 3 7 1013.1 1013.1 0.0
25/06:30am 10.0 7.1 4.6 69 2.4 NW 9 19 5 10 1012.7 1012.7 0.0
25/06:00am 10.1 7.3 5.1 71 2.3 WNW 9 20 5 11 1012.1 1012.0 0.0
25/05:30am 10.3 7.7 5.9 74 2.0 NW 9 20 5 11 1011.7 1011.6 0.0
25/05:00am 9.9 7.9 6.4 79 1.6 WNW 6 11 3 6 1011.8 1011.7 0.0
25/04:30am 10.1 7.5 6.1 76 1.9 NW 9 17 5 9 1011.5 1011.4 0.0
25/04:00am 10.2 7.6 6.2 76 1.9 NW 9 20 5 11 1011.3 1011.2 0.0
25/03:30am 10.5 7.5 6.1 74 2.0 NNW 11 19 6 10 1011.2 1011.1 0.0
25/03:00am 10.9 8.3 6.1 72 2.2 NW 9 22 5 12 1011.3 1011.2 0.0
25/02:30am 9.0 6.7 4.6 74 2.0 NW 6 9 3 5 1011.8 1011.7 0.0
25/02:00am 9.0 5.8 5.2 77 1.7 NW 11 19 6 10 1011.7 1011.6 0.0
25/01:30am 8.6 5.7 4.4 75 1.8 NW 9 13 5 7 1011.9 1011.8 0.0
25/01:00am 8.6 5.6 4.0 73 2.0 NW 9 13 5 7 1012.4 1012.4 0.0
25/12:30am 8.6 4.8 4.0 73 2.0 NNW 13 20 7 11 1012.5 1012.5 0.0
25/12:00am 8.7 4.6 4.1 73 2.0 NNW 15 20 8 11 1012.7 1012.7 0.0
 
Date/Time
EST
Temp
°C
App
Temp
°C
Dew
Point
°C
Rel
Hum
%
Delta-T
°C
Wind Press
QNH
hPa
Press
MSL
hPa
Rain since
9am
mm
Dir  Spd
km/h
Gust
km/h
Spd
kts
Gust
kts
24/11:30pm 8.5 4.7 3.9 73 2.0 NW 13 20 7 11 1013.1 1013.1 0.0
24/11:00pm 8.6 5.1 3.6 71 2.2 NNW 11 17 6 9 1013.4 1013.4 0.0
24/10:30pm 8.8 5.9 2.8 66 2.5 NW 7 17 4 9 1013.7 1013.7 0.0
24/10:00pm 10.2 4.9 5.0 70 2.4 N 22 26 12 14 1013.4 1013.4 0.0
24/09:30pm 9.9 5.5 4.9 71 2.2 NNW 17 26 9 14 1013.7 1013.7 0.0
24/09:00pm 8.9 5.1 4.1 72 2.1 NW 13 19 7 10 1014.2 1014.2 0.0
24/08:30pm 8.8 5.7 3.6 70 2.2 NW 9 17 5 9 1014.6 1014.6 0.0
24/08:00pm 9.0 6.0 4.0 71 2.2 NW 9 15 5 8 1014.7 1014.7 0.0
24/07:30pm 9.1 6.0 3.7 69 2.3 NW 9 19 5 10 1014.5 1014.5 0.0
24/07:00pm 9.2 6.1 3.4 67 2.5 NW 9 17 5 9 1014.3 1014.3 0.0
24/06:30pm 9.3 6.1 3.3 66 2.6 NW 9 17 5 9 1013.8 1013.8 0.0
24/06:00pm 9.5 6.4 3.5 66 2.6 NW 9 15 5 8 1013.5 1013.5 0.0
24/05:30pm 9.8 7.6 3.5 65 2.7 WNW 4 9 2 5 1013.2 1013.2 0.0
24/05:00pm 10.6 8.1 3.6 62 3.1 NW 6 13 3 7 1012.8 1012.8 0.0
24/04:30pm 10.9 8.3 3.2 59 3.4 NW 6 13 3 7 1012.9 1012.9 0.0
24/04:00pm 11.1 8.4 2.9 57 3.6 NW 6 11 3 6 1013.0 1013.0 0.0
24/03:30pm 11.2 8.3 2.5 55 3.7 NNW 7 15 4 8 1012.9 1012.9 0.0
24/03:00pm 11.4 8.6 2.2 53 3.9 NW 6 11 3 6 1013.1 1013.1 0.0
24/02:30pm 11.6 8.6 2.1 52 4.1 NW 7 17 4 9 1013.3 1013.3 0.0
24/02:00pm 11.5 8.5 0.9 48 4.4 WNW 6 15 3 8 1013.0 1013.0 0.0
24/01:30pm 11.7 9.2 1.4 49 4.3 NW 4 11 2 6 1013.3 1013.3 0.0
24/01:00pm 12.0 9.2 1.9 50 4.3 WNW 6 13 3 7 1013.9 1013.9 0.0
24/12:30pm 11.9 9.0 2.4 52 4.1 WNW 7 17 4 9 1014.6 1014.6 0.0
24/12:00pm 11.5 8.5 0.9 48 4.4 WNW 6 15 3 8 1015.5 1015.5 0.0
24/11:30am 11.4 8.5 1.6 51 4.1 WNW 6 15 3 8 1016.0 1016.0 0.0
24/11:00am 10.9 7.9 1.7 53 3.9 WNW 7 19 4 10 1016.1 1016.1 0.0
24/10:30am 10.1 6.9 1.0 53 3.7 WNW 7 17 4 9 1016.4 1016.4 0.0
24/10:00am 9.8 6.2 0.4 52 3.8 WNW 9 24 5 13 1016.3 1016.3 0.0
24/09:30am 9.4 5.8 0.3 53 3.7 W 9 19 5 10 1016.2 1016.2 0.0
24/09:00am 8.9 5.2 0.1 54 3.5 WNW 9 20 5 11 1016.0 1016.0 0.0
24/08:30am 8.7 5.5 -0.3 53 3.5 NW 6 13 3 7 1016.2 1016.2 0.0
24/08:00am 7.8 4.7 0.3 59 3.0 WNW 6 13 3 7 1015.5 1015.5 0.0
24/07:30am 7.5 4.3 0.5 61 2.8 WNW 7 15 4 8 1015.6 1015.6 0.0
24/07:00am 6.7 3.0 0.2 63 2.5 WNW 9 15 5 8 1015.3 1015.3 0.0
24/06:30am 6.5 3.4 0.4 65 2.4 NW 6 11 3 6 1015.6 1015.6 0.0
24/06:00am 6.5 3.5 0.8 67 2.2 WNW 6 9 3 5 1015.7 1015.7 0.0
24/05:30am 6.6 3.4 0.7 66 2.3 WNW 7 9 4 5 1015.7 1015.7 0.0
24/05:00am 6.9 3.6 0.4 63 2.5 WNW 7 13 4 7 1015.4 1015.4 0.0
24/04:30am 7.3 4.1 0.5 62 2.7 WNW 7 11 4 6 1014.7 1014.7 0.0
24/04:00am 7.7 4.0 0.0 58 3.0 W 9 15 5 8 1014.7 1014.7 0.0
24/03:30am 7.9 4.8 1.1 62 2.7 W 7 11 4 6 1014.6 1014.6 0.0
24/03:00am 8.3 4.7 0.3 57 3.2 W 9 17 5 9 1014.6 1014.6 0.0
24/02:30am 8.4 5.3 1.3 61 2.9 W 7 11 4 6 1014.7 1014.7 0.0
24/02:00am 8.9 5.3 0.9 57 3.2 W 9 17 5 9 1014.6 1014.6 0.0
24/01:30am 9.1 6.0 1.3 58 3.2 W 7 11 4 6 1014.5 1014.5 0.0
24/01:00am 9.6 6.0 0.8 54 3.6 W 9 13 5 7 1013.9 1013.9 0.0
24/12:30am 10.1 6.1 0.7 52 3.8 W 11 17 6 9 1014.1 1014.1 0.0
24/12:00am 9.9 6.8 1.3 55 3.6 WNW 7 13 4 7 1013.9 1013.9 0.0
 
Date/Time
EST
Temp
°C
App
Temp
°C
Dew
Point
°C
Rel
Hum
%
Delta-T
°C
Wind Press
QNH
hPa
Press
MSL
hPa
Rain since
9am
mm
Dir  Spd
km/h
Gust
km/h
Spd
kts
Gust
kts
23/11:30pm 10.2 7.1 1.3 54 3.7 WNW 7 15 4 8 1013.5 1013.5 0.0
23/11:00pm 10.4 7.3 1.2 53 3.8 WNW 7 15 4 8 1013.1 1013.1 0.0
23/10:30pm 10.5 7.4 1.6 54 3.7 WNW 7 17 4 9 1012.9 1012.9 0.0
23/10:00pm 10.7 7.7 1.8 54 3.8 WNW 7 17 4 9 1012.7 1012.7 0.0
23/09:30pm 10.8 7.8 1.9 54 3.8 WNW 7 11 4 6 1012.1 1012.0 0.0
23/09:00pm 11.0 8.0 2.3 55 3.7 WNW 7 13 4 7 1011.6 1011.5 0.0
23/08:30pm 11.5 8.7 2.3 53 4.0 WNW 6 13 3 7 1011.7 1011.6 0.0
23/08:00pm 11.9 9.0 2.6 53 4.0 WNW 7 15 4 8 1010.9 1010.8 0.0
23/07:30pm 12.0 9.1 2.5 52 4.1 WNW 7 17 4 9 1010.4 1010.3 0.0
23/07:00pm 12.5 9.2 2.4 50 4.4 WNW 9 17 5 9 1009.7 1009.6 0.0
23/06:30pm 13.0 9.7 2.6 49 4.6 WNW 9 19 5 10 1009.2 1009.2 0.0
23/06:00pm 13.3 9.6 2.5 48 4.8 WNW 11 19 6 10 1008.6 1008.6 0.0
23/05:30pm 13.8 10.5 2.7 47 4.9 W 9 19 5 10 1008.3 1008.3 0.0
23/05:00pm 14.6 10.5 2.5 44 5.4 WNW 13 35 7 19 1007.7 1007.7 0.0
23/04:30pm 15.2 10.7 2.4 42 5.7 WNW 15 37 8 20 1006.8 1006.8 0.0
23/04:00pm 15.7 11.6 2.5 41 5.9 WNW 13 30 7 16 1006.2 1006.2 0.0
23/03:30pm 16.3 10.9 2.3 39 6.3 WNW 20 39 11 21 1005.4 1005.4 0.0
23/03:00pm 16.8 11.4 2.4 38 6.5 WNW 20 41 11 22 1004.7 1004.7 0.0
23/02:30pm 17.1 12.2 1.9 36 6.8 WNW 17 44 9 24 1004.7 1004.7 0.0
23/02:00pm 17.3 12.4 2.1 36 6.9 WNW 17 39 9 21 1004.2 1004.2 0.0
23/01:30pm 17.4 12.5 2.2 36 6.9 WNW 17 39 9 21 1003.7 1003.7 0.0
23/01:00pm 17.3 12.5 2.5 37 6.8 WNW 17 33 9 18 1003.7 1003.7 0.0
23/12:30pm 17.1 12.2 2.3 37 6.7 WNW 17 41 9 22 1003.7 1003.7 0.0
23/12:00pm 17.1 11.8 3.1 39 6.5 WNW 20 41 11 22 1003.5 1003.5 0.0
23/11:30am 17.0 12.5 2.2 37 6.7 WNW 15 41 8 22 1004.5 1004.5 0.0
23/11:00am 16.8 11.6 2.4 38 6.5 WNW 19 41 10 22 1004.6 1004.6 0.0

Other Formats:

Comma delimited format used in spreadsheet applications
http://www.bom.gov.au/fwo/IDN60801/IDN60801.95770.axf

JavaScript Object Notation format (JSON) in row-major order
http://www.bom.gov.au/fwo/IDN60801/IDN60801.95770.json